createdAt,value
2023-03-12T00:00:20.222Z,66.66
2023-03-12T00:03:08.010Z,66.65
2023-03-12T00:05:38.312Z,66.71
2023-03-12T00:08:06.312Z,66.78
2023-03-12T00:10:33.452Z,66.67
2023-03-12T00:13:00.601Z,66.75
2023-03-12T00:15:28.087Z,66.80
2023-03-12T00:17:55.133Z,66.77
2023-03-12T00:20:23.550Z,66.80
2023-03-12T00:22:50.817Z,66.77
2023-03-12T00:25:17.942Z,66.89
2023-03-12T00:27:44.863Z,66.89
2023-03-12T00:30:12.759Z,66.93
2023-03-12T00:32:40.286Z,66.89
2023-03-12T00:35:08.368Z,66.87
2023-03-12T00:37:36.937Z,66.98
2023-03-12T00:40:05.966Z,66.90
2023-03-12T00:42:33.122Z,66.99
2023-03-12T00:45:00.288Z,66.89
2023-03-12T00:47:27.424Z,66.96
2023-03-12T00:49:54.540Z,66.86
2023-03-12T00:52:21.683Z,66.91
2023-03-12T00:54:48.765Z,66.86
2023-03-12T00:57:16.093Z,66.96
2023-03-12T00:59:43.256Z,67.07
2023-03-12T01:02:10.423Z,67.07
2023-03-12T01:04:37.672Z,67.05
2023-03-12T01:07:05.158Z,67.02
2023-03-12T01:09:32.334Z,67.03
2023-03-12T01:11:59.540Z,66.97
2023-03-12T01:14:26.748Z,67.01
2023-03-12T01:16:54.660Z,67.01
2023-03-12T01:19:21.759Z,67.06
2023-03-12T01:21:49.164Z,67.10
2023-03-12T01:24:16.270Z,67.12
2023-03-12T01:26:44.153Z,67.17
2023-03-12T01:29:11.308Z,66.93
2023-03-12T01:31:38.504Z,67.01
2023-03-12T01:34:05.591Z,67.03
2023-03-12T01:36:32.740Z,67.07
2023-03-12T01:39:00.367Z,67.09
2023-03-12T01:41:32.535Z,67.05
2023-03-12T01:44:03.716Z,67.09
2023-03-12T01:46:36.408Z,67.12
2023-03-12T01:49:14.262Z,67.07
2023-03-12T01:51:45.840Z,67.10
2023-03-12T01:54:19.775Z,67.11
2023-03-12T01:56:47.958Z,67.05
2023-03-12T01:59:23.484Z,67.08
2023-03-12T02:01:51.669Z,67.05
2023-03-12T02:04:24.892Z,67.16
2023-03-12T02:07:04.469Z,67.10
2023-03-12T02:09:34.910Z,67.05
2023-03-12T02:12:03.054Z,67.06
2023-03-12T02:14:30.873Z,67.14
2023-03-12T02:16:58.563Z,67.14
2023-03-12T02:19:44.466Z,67.14
2023-03-12T02:22:12.196Z,67.16
2023-03-12T02:24:52.785Z,67.04
2023-03-12T02:27:21.501Z,67.09
2023-03-12T02:29:49.019Z,67.12
2023-03-12T02:32:23.535Z,67.16
2023-03-12T02:34:51.318Z,67.10
2023-03-12T02:37:19.657Z,67.08
2023-03-12T02:39:54.174Z,67.11
2023-03-12T02:42:23.137Z,67.15
2023-03-12T02:44:50.729Z,67.15
2023-03-12T02:47:18.364Z,67.13
2023-03-12T02:49:46.678Z,67.20
2023-03-12T02:52:13.893Z,67.25
2023-03-12T02:54:42.402Z,67.15
2023-03-12T02:57:10.121Z,67.23
2023-03-12T02:59:37.712Z,67.15
2023-03-12T03:02:07.027Z,67.25
2023-03-12T03:04:35.169Z,67.14
2023-03-12T03:07:02.606Z,67.13
2023-03-12T03:09:29.650Z,67.23
2023-03-12T03:11:56.860Z,67.13
2023-03-12T03:14:24.729Z,67.17
2023-03-12T03:16:52.438Z,67.15
2023-03-12T03:19:22.586Z,67.28
2023-03-12T03:21:49.586Z,67.23
2023-03-12T03:24:17.047Z,67.14
2023-03-12T03:26:44.678Z,67.13
2023-03-12T03:29:11.804Z,67.25
2023-03-12T03:31:39.059Z,67.32
2023-03-12T03:34:06.220Z,67.23
2023-03-12T03:36:33.446Z,67.29
2023-03-12T03:39:05.293Z,67.25
2023-03-12T03:41:33.133Z,67.26
2023-03-12T03:44:00.358Z,67.26
2023-03-12T03:46:28.523Z,67.35
2023-03-12T03:49:00.353Z,67.36
2023-03-12T03:51:28.469Z,67.29
2023-03-12T03:54:00.521Z,67.22
2023-03-12T03:56:28.098Z,67.15
2023-03-12T03:58:57.908Z,67.22
2023-03-12T04:01:25.187Z,67.25
2023-03-12T04:03:52.737Z,67.21
2023-03-12T04:06:20.138Z,67.27
2023-03-12T04:08:47.869Z,67.24
2023-03-12T04:11:21.246Z,67.23
2023-03-12T04:13:49.393Z,67.14
2023-03-12T04:16:18.688Z,67.25
2023-03-12T04:18:46.542Z,67.20
2023-03-12T04:21:14.581Z,67.28
2023-03-12T04:23:42.260Z,67.31
2023-03-12T04:26:09.777Z,67.39
2023-03-12T04:28:37.974Z,67.33
2023-03-12T04:31:07.499Z,67.32
2023-03-12T04:33:39.595Z,67.36
2023-03-12T04:36:07.475Z,67.30
2023-03-12T04:38:35.895Z,67.26
2023-03-12T04:41:11.273Z,67.22
2023-03-12T04:43:40.859Z,67.21
2023-03-12T04:46:09.216Z,67.22
2023-03-12T04:48:37.281Z,67.12
2023-03-12T04:51:05.769Z,67.08
2023-03-12T04:53:33.234Z,67.09
2023-03-12T04:56:00.573Z,67.18
2023-03-12T04:58:28.157Z,67.28
2023-03-12T05:00:55.365Z,67.26
2023-03-12T05:03:23.116Z,67.17
2023-03-12T05:05:50.923Z,67.13
2023-03-12T05:08:18.505Z,67.15
2023-03-12T05:10:46.606Z,67.10
2023-03-12T05:13:21.564Z,67.13
2023-03-12T05:15:50.845Z,67.05
2023-03-12T05:18:20.623Z,67.11
2023-03-12T05:20:48.186Z,67.15
2023-03-12T05:23:15.412Z,67.16
2023-03-12T05:25:42.701Z,67.07
2023-03-12T05:28:10.867Z,67.05
2023-03-12T05:30:40.337Z,67.09
2023-03-12T05:33:08.269Z,67.10
2023-03-12T05:35:35.358Z,67.16
2023-03-12T05:38:02.692Z,67.12
2023-03-12T05:40:31.282Z,67.13
2023-03-12T05:42:59.439Z,67.24
2023-03-12T05:45:27.042Z,67.07
2023-03-12T05:47:54.747Z,67.07
2023-03-12T05:50:21.951Z,67.15
2023-03-12T05:52:49.177Z,67.16
2023-03-12T05:55:16.763Z,67.14
2023-03-12T05:57:44.448Z,67.12
2023-03-12T06:00:14.592Z,67.17
2023-03-12T06:02:43.876Z,67.08
2023-03-12T06:05:11.915Z,67.02
2023-03-12T06:07:40.832Z,67.06
2023-03-12T06:10:09.291Z,66.98
2023-03-12T06:12:36.389Z,67.00
2023-03-12T06:15:04.303Z,67.06
2023-03-12T06:17:32.531Z,67.13
2023-03-12T06:19:59.860Z,67.03
2023-03-12T06:22:26.954Z,67.06
2023-03-12T06:24:54.262Z,67.12
2023-03-12T06:27:21.446Z,67.01
2023-03-12T06:29:48.559Z,67.05
2023-03-12T06:32:15.925Z,67.03
2023-03-12T06:34:43.090Z,67.00
2023-03-12T06:37:11.809Z,67.11
2023-03-12T06:39:39.091Z,67.21
2023-03-12T06:42:06.927Z,67.16
2023-03-12T06:44:34.002Z,67.06
2023-03-12T06:47:01.054Z,66.90
2023-03-12T06:49:32.282Z,66.94
2023-03-12T06:51:59.661Z,67.01
2023-03-12T06:54:26.980Z,67.01
2023-03-12T06:56:53.981Z,67.08
2023-03-12T06:59:21.974Z,67.02
2023-03-12T07:01:49.672Z,66.92
2023-03-12T07:04:16.865Z,67.06
2023-03-12T07:06:44.094Z,67.10
2023-03-12T07:09:11.220Z,67.15
2023-03-12T07:11:38.531Z,67.06
2023-03-12T07:14:05.658Z,67.17
2023-03-12T07:16:32.983Z,67.07
2023-03-12T07:19:00.087Z,67.05
2023-03-12T07:21:27.315Z,66.97
2023-03-12T07:23:54.441Z,66.86
2023-03-12T07:26:21.668Z,66.89
2023-03-12T07:28:48.796Z,66.90
2023-03-12T07:31:15.928Z,66.89
2023-03-12T07:33:43.139Z,67.04
2023-03-12T07:36:10.445Z,67.14
2023-03-12T07:38:37.700Z,67.01
2023-03-12T07:41:05.183Z,66.92
2023-03-12T07:43:33.074Z,67.01
2023-03-12T07:46:00.400Z,67.07
2023-03-12T07:48:27.495Z,66.95
2023-03-12T07:50:54.581Z,66.94
2023-03-12T07:53:21.651Z,66.83
2023-03-12T07:55:49.065Z,66.73
2023-03-12T07:58:16.949Z,66.86
2023-03-12T08:00:45.103Z,66.75
2023-03-12T08:03:13.548Z,66.67
2023-03-12T08:05:40.880Z,66.58
2023-03-12T08:08:08.733Z,66.54
2023-03-12T08:10:37.340Z,66.58
2023-03-12T08:13:04.613Z,66.39
2023-03-12T08:15:32.290Z,66.46
2023-03-12T08:17:59.791Z,66.28
2023-03-12T08:20:26.933Z,66.22
2023-03-12T08:22:54.038Z,66.43
2023-03-12T08:25:21.316Z,66.44
2023-03-12T08:27:48.393Z,66.52
2023-03-12T08:30:15.584Z,66.49
2023-03-12T08:32:42.691Z,66.60
2023-03-12T08:35:10.360Z,66.71
2023-03-12T08:37:37.449Z,66.76
2023-03-12T08:40:13.968Z,67.02
2023-03-12T08:42:42.314Z,66.75
2023-03-12T08:45:10.767Z,66.54
2023-03-12T08:47:41.633Z,66.80
2023-03-12T08:50:11.459Z,66.92
2023-03-12T08:52:38.946Z,66.75
2023-03-12T08:55:06.871Z,66.76
2023-03-12T08:57:34.087Z,66.65
2023-03-12T09:00:01.258Z,66.51
2023-03-12T09:02:28.803Z,66.57
2023-03-12T09:04:55.891Z,66.67
2023-03-12T09:07:23.180Z,66.42
2023-03-12T09:09:50.452Z,66.54
2023-03-12T09:12:17.669Z,66.16
2023-03-12T09:15:03.042Z,66.35
2023-03-12T09:17:31.110Z,66.26
2023-03-12T09:19:58.408Z,66.43
2023-03-12T09:22:25.484Z,66.32
2023-03-12T09:24:52.736Z,65.96
2023-03-12T09:27:19.888Z,65.92
2023-03-12T09:29:59.318Z,66.32
2023-03-12T09:32:28.572Z,66.11
2023-03-12T09:34:55.875Z,66.03
2023-03-12T09:37:24.313Z,65.99
2023-03-12T09:39:52.505Z,66.05
2023-03-12T09:42:35.556Z,65.84
2023-03-12T09:45:04.749Z,65.91
2023-03-12T09:47:35.665Z,66.10
2023-03-12T09:50:25.359Z,65.96
2023-03-12T09:53:03.377Z,66.25
2023-03-12T09:55:38.913Z,65.89
2023-03-12T09:58:13.985Z,65.65
2023-03-12T10:00:41.083Z,65.61
2023-03-12T10:03:10.935Z,65.61
2023-03-12T10:05:56.505Z,65.81
2023-03-12T10:08:35.982Z,65.96
2023-03-12T10:11:27.120Z,66.14
2023-03-12T10:14:05.987Z,65.95
2023-03-12T10:16:44.658Z,65.88
2023-03-12T10:19:49.512Z,65.66
2023-03-12T10:22:48.086Z,65.90
2023-03-12T10:25:22.072Z,65.67
2023-03-12T10:27:50.514Z,65.59
2023-03-12T10:30:24.955Z,65.65
2023-03-12T10:32:59.573Z,65.43
2023-03-12T10:35:30.514Z,65.39
2023-03-12T10:37:59.317Z,65.29
2023-03-12T10:40:34.278Z,65.23
2023-03-12T10:43:02.945Z,65.26
2023-03-12T10:45:42.201Z,65.26
2023-03-12T10:48:17.873Z,65.19
2023-03-12T10:50:59.770Z,65.28
2023-03-12T10:53:35.621Z,65.21
2023-03-12T10:56:09.698Z,65.30
2023-03-12T10:58:48.796Z,64.78
2023-03-12T11:01:19.080Z,64.58
2023-03-12T11:03:46.375Z,64.71
2023-03-12T11:06:29.293Z,64.78
2023-03-12T11:09:19.504Z,64.57
2023-03-12T11:11:48.158Z,64.73
2023-03-12T11:14:26.310Z,64.87
2023-03-12T11:16:55.387Z,64.74
2023-03-12T11:19:34.375Z,64.84
2023-03-12T11:22:04.727Z,64.81
2023-03-12T11:24:31.967Z,64.75
2023-03-12T11:27:08.195Z,64.43
2023-03-12T11:29:40.470Z,64.44
2023-03-12T11:32:18.270Z,64.63
2023-03-12T11:34:49.601Z,65.10
2023-03-12T11:37:30.675Z,64.97
2023-03-12T11:40:00.360Z,64.67
2023-03-12T11:42:52.153Z,64.29
2023-03-12T11:45:29.595Z,64.11
2023-03-12T11:48:06.717Z,64.35
2023-03-12T11:51:00.085Z,63.96
2023-03-12T11:53:36.513Z,64.28
2023-03-12T11:56:25.501Z,64.10
2023-03-12T11:59:01.793Z,64.18
2023-03-12T12:01:55.635Z,64.05
2023-03-12T12:04:44.248Z,64.01
2023-03-12T12:07:27.832Z,63.88
2023-03-12T12:10:33.844Z,63.78
2023-03-12T12:13:28.540Z,64.20
2023-03-12T12:16:23.972Z,63.94
2023-03-12T12:19:19.293Z,63.70
2023-03-12T12:22:05.673Z,63.77
2023-03-12T12:24:41.937Z,64.13
2023-03-12T12:27:21.947Z,64.19
2023-03-12T12:30:06.184Z,63.92
2023-03-12T12:32:55.480Z,63.79
2023-03-12T12:35:32.972Z,63.45
2023-03-12T12:38:05.382Z,63.49
2023-03-12T12:40:47.678Z,63.69
2023-03-12T12:43:20.612Z,63.57
2023-03-12T12:45:50.636Z,63.53
2023-03-12T12:48:23.703Z,63.25
2023-03-12T12:50:53.075Z,63.30
2023-03-12T12:53:34.157Z,63.24
2023-03-12T12:56:10.624Z,63.55
2023-03-12T12:58:43.685Z,63.76
2023-03-12T13:01:11.388Z,63.63
2023-03-12T13:03:39.006Z,63.69
2023-03-12T13:06:06.970Z,63.42
2023-03-12T13:08:43.310Z,63.43
2023-03-12T13:11:20.254Z,63.23
2023-03-12T13:14:03.731Z,62.71
2023-03-12T13:16:35.240Z,62.74
2023-03-12T13:19:14.637Z,63.02
2023-03-12T13:22:04.158Z,62.94
2023-03-12T13:24:40.735Z,63.23
2023-03-12T13:27:23.069Z,63.31
2023-03-12T13:29:56.960Z,62.98
2023-03-12T13:32:50.061Z,62.70
2023-03-12T13:35:17.154Z,62.74
2023-03-12T13:37:47.191Z,62.83
2023-03-12T13:40:29.598Z,62.87
2023-03-12T13:43:15.131Z,62.67
2023-03-12T13:45:48.514Z,62.64
2023-03-12T13:48:19.893Z,62.56
2023-03-12T13:50:55.967Z,62.67
2023-03-12T13:53:28.593Z,62.59
2023-03-12T13:56:07.111Z,62.54
2023-03-12T13:58:44.601Z,62.58
2023-03-12T14:01:19.654Z,62.36
2023-03-12T14:03:51.881Z,62.22
2023-03-12T14:06:21.309Z,62.37
2023-03-12T14:08:57.141Z,62.41
2023-03-12T14:12:02.402Z,62.31
2023-03-12T14:14:42.453Z,62.39
2023-03-12T14:17:24.257Z,62.15
2023-03-12T14:20:01.727Z,62.13
2023-03-12T14:22:33.202Z,62.10
2023-03-12T14:25:13.232Z,62.34
2023-03-12T14:27:41.689Z,62.20
2023-03-12T14:30:12.301Z,61.98
2023-03-12T14:32:40.761Z,61.88
2023-03-12T14:35:16.665Z,61.75
2023-03-12T14:37:56.830Z,61.96
2023-03-12T14:40:25.763Z,62.00
2023-03-12T14:42:53.191Z,61.99
2023-03-12T14:45:23.230Z,62.00
2023-03-12T14:47:56.326Z,62.07
2023-03-12T14:50:28.165Z,61.94
2023-03-12T14:53:10.338Z,61.82
2023-03-12T14:55:37.713Z,61.74
2023-03-12T14:58:07.428Z,61.61
2023-03-12T15:00:34.591Z,61.54
2023-03-12T15:03:05.545Z,61.60
2023-03-12T15:05:34.710Z,61.62
2023-03-12T15:08:03.840Z,61.52
2023-03-12T15:10:32.324Z,61.61
2023-03-12T15:13:00.857Z,61.61
2023-03-12T15:15:41.668Z,61.46
2023-03-12T15:18:16.017Z,61.42
2023-03-12T15:20:43.907Z,61.44
2023-03-12T15:23:13.794Z,61.33
2023-03-12T15:25:42.535Z,61.46
2023-03-12T15:28:15.760Z,61.42
2023-03-12T15:30:43.844Z,61.35
2023-03-12T15:33:21.938Z,61.37
2023-03-12T15:36:02.995Z,61.24
2023-03-12T15:38:33.232Z,61.37
2023-03-12T15:41:06.525Z,61.29
2023-03-12T15:43:33.709Z,61.21
2023-03-12T15:46:07.122Z,61.17
2023-03-12T15:48:40.725Z,61.23
2023-03-12T15:51:25.956Z,61.27
2023-03-12T15:54:06.614Z,61.19
2023-03-12T15:56:35.257Z,61.41
2023-03-12T15:59:25.919Z,61.13
2023-03-12T16:01:56.819Z,61.15
2023-03-12T16:04:24.744Z,61.20
2023-03-12T16:06:53.553Z,61.06
2023-03-12T16:09:26.409Z,61.15
2023-03-12T16:11:55.461Z,61.14
2023-03-12T16:14:34.854Z,61.11
2023-03-12T16:17:01.955Z,61.09
2023-03-12T16:19:30.666Z,60.99
2023-03-12T16:21:57.765Z,61.08
2023-03-12T16:24:24.856Z,60.96
2023-03-12T16:26:55.891Z,61.06
2023-03-12T16:29:31.574Z,61.06
2023-03-12T16:31:58.728Z,61.03
2023-03-12T16:34:26.268Z,61.16
2023-03-12T16:36:53.721Z,61.09
2023-03-12T16:39:21.043Z,61.02
2023-03-12T16:41:48.276Z,61.12
2023-03-12T16:44:20.349Z,61.11
2023-03-12T16:46:47.638Z,61.15
2023-03-12T16:49:17.474Z,61.05
2023-03-12T16:51:44.534Z,61.00
2023-03-12T16:54:12.432Z,61.00
2023-03-12T16:56:48.348Z,61.01
2023-03-12T16:59:27.007Z,61.02
2023-03-12T17:01:54.452Z,60.93
2023-03-12T17:04:21.666Z,61.04
2023-03-12T17:06:48.887Z,61.04
2023-03-12T17:09:15.954Z,61.19
2023-03-12T17:11:44.645Z,61.13
2023-03-12T17:14:19.155Z,61.10
2023-03-12T17:16:46.813Z,61.20
2023-03-12T17:19:14.991Z,60.97
2023-03-12T17:21:45.920Z,61.00
2023-03-12T17:24:14.237Z,61.09
2023-03-12T17:26:43.190Z,60.97
2023-03-12T17:29:10.605Z,60.90
2023-03-12T17:31:38.369Z,61.07
2023-03-12T17:34:05.996Z,60.99
2023-03-12T17:36:36.717Z,61.13
2023-03-12T17:39:05.242Z,61.05
2023-03-12T17:41:33.355Z,61.16
2023-03-12T17:44:04.557Z,61.13
2023-03-12T17:46:31.828Z,61.10
2023-03-12T17:49:00.027Z,61.17
2023-03-12T17:51:27.417Z,61.13
2023-03-12T17:53:55.031Z,61.13
2023-03-12T17:56:22.565Z,61.14
2023-03-12T17:58:49.804Z,61.13
2023-03-12T18:01:17.452Z,61.11
2023-03-12T18:03:44.629Z,61.16
2023-03-12T18:06:12.179Z,61.18
2023-03-12T18:08:39.290Z,61.23
2023-03-12T18:11:06.552Z,61.11
2023-03-12T18:13:33.744Z,61.19
2023-03-12T18:16:01.059Z,61.14
2023-03-12T18:18:28.608Z,61.16
2023-03-12T18:20:56.043Z,61.08
2023-03-12T18:23:25.320Z,61.02
2023-03-12T18:25:52.380Z,60.86
2023-03-12T18:28:19.621Z,60.99
2023-03-12T18:30:47.495Z,61.05
2023-03-12T18:33:14.944Z,61.21
2023-03-12T18:35:44.011Z,61.13
2023-03-12T18:38:11.425Z,61.04
2023-03-12T18:40:38.701Z,61.15
2023-03-12T18:43:05.953Z,61.16
2023-03-12T18:45:33.329Z,61.07
2023-03-12T18:48:00.537Z,61.05
2023-03-12T18:50:27.686Z,61.21
2023-03-12T18:52:54.868Z,61.05
2023-03-12T18:55:22.170Z,61.15
2023-03-12T18:57:49.281Z,61.29
2023-03-12T19:00:20.211Z,61.13
2023-03-12T19:02:48.324Z,61.08
2023-03-12T19:05:16.179Z,60.96
2023-03-12T19:07:43.422Z,61.04
2023-03-12T19:10:11.367Z,61.09
2023-03-12T19:12:50.959Z,61.09
2023-03-12T19:15:19.448Z,61.01
2023-03-12T19:17:46.597Z,60.88
2023-03-12T19:20:14.243Z,60.88
2023-03-12T19:22:41.544Z,60.84
2023-03-12T19:25:09.243Z,60.93
2023-03-12T19:27:36.373Z,60.90
2023-03-12T19:30:04.731Z,60.98
2023-03-12T19:32:42.545Z,60.91
2023-03-12T19:35:11.788Z,60.95
2023-03-12T19:37:38.927Z,60.97
2023-03-12T19:40:06.747Z,60.93
2023-03-12T19:42:34.152Z,60.87
2023-03-12T19:45:01.279Z,60.92
2023-03-12T19:47:28.532Z,60.86
2023-03-12T19:49:55.782Z,60.88
2023-03-12T19:52:23.062Z,60.82
2023-03-12T19:55:03.376Z,60.88
2023-03-12T19:57:31.679Z,60.90
2023-03-12T19:59:59.024Z,61.03
2023-03-12T20:02:26.553Z,60.96
2023-03-12T20:04:55.398Z,60.89
2023-03-12T20:07:22.863Z,60.84
2023-03-12T20:09:50.143Z,60.82
2023-03-12T20:12:17.415Z,60.88
2023-03-12T20:14:44.873Z,60.91
2023-03-12T20:17:12.375Z,60.91
2023-03-12T20:19:39.863Z,60.85
2023-03-12T20:22:07.504Z,60.79
2023-03-12T20:24:35.493Z,60.90
2023-03-12T20:27:04.001Z,60.84
2023-03-12T20:29:31.284Z,60.80
2023-03-12T20:31:58.590Z,60.77
2023-03-12T20:34:25.943Z,60.90
2023-03-12T20:36:53.141Z,60.86
2023-03-12T20:39:20.356Z,60.93
2023-03-12T20:41:49.153Z,60.99
2023-03-12T20:44:16.920Z,60.97
2023-03-12T20:46:44.162Z,60.94
2023-03-12T20:49:11.301Z,60.89
2023-03-12T20:51:38.297Z,60.95
2023-03-12T20:54:05.668Z,60.92
2023-03-12T20:56:32.756Z,61.02
2023-03-12T20:58:59.886Z,60.82
2023-03-12T21:01:27.983Z,60.87
2023-03-12T21:03:58.624Z,60.86
2023-03-12T21:06:26.200Z,60.80
2023-03-12T21:08:56.372Z,60.88
2023-03-12T21:11:23.577Z,60.99
2023-03-12T21:13:50.648Z,61.03
2023-03-12T21:16:17.949Z,61.05
2023-03-12T21:18:45.357Z,60.98
2023-03-12T21:21:12.753Z,61.11
2023-03-12T21:23:39.883Z,61.07
2023-03-12T21:26:09.612Z,61.05
2023-03-12T21:28:36.889Z,61.10
2023-03-12T21:31:09.340Z,61.27
2023-03-12T21:33:36.992Z,61.13
2023-03-12T21:36:08.157Z,61.02
2023-03-12T21:38:36.596Z,61.06
2023-03-12T21:41:09.799Z,60.99
2023-03-12T21:43:37.248Z,61.00
2023-03-12T21:46:06.695Z,61.04
2023-03-12T21:48:34.880Z,61.07
2023-03-12T21:51:08.996Z,60.97
2023-03-12T21:53:36.918Z,61.08
2023-03-12T21:56:06.236Z,61.10
2023-03-12T21:58:34.557Z,61.11
2023-03-12T22:01:09.449Z,61.12
2023-03-12T22:03:37.776Z,60.96
2023-03-12T22:06:05.549Z,60.98
2023-03-12T22:08:33.742Z,61.02
2023-03-12T22:11:01.346Z,61.07
2023-03-12T22:13:28.569Z,61.10
2023-03-12T22:15:57.657Z,61.13
2023-03-12T22:18:25.539Z,61.16
2023-03-12T22:20:54.555Z,61.04
2023-03-12T22:23:22.530Z,60.96
2023-03-12T22:25:49.699Z,61.08
2023-03-12T22:28:17.623Z,61.03
2023-03-12T22:30:45.208Z,61.04
2023-03-12T22:33:13.172Z,60.99
2023-03-12T22:35:48.262Z,61.08
2023-03-12T22:38:15.613Z,61.21
2023-03-12T22:40:42.721Z,61.17
2023-03-12T22:43:09.896Z,61.15
2023-03-12T22:45:37.063Z,61.10
2023-03-12T22:48:04.711Z,61.12
2023-03-12T22:50:32.370Z,61.16
2023-03-12T22:52:59.854Z,61.15
2023-03-12T22:55:27.020Z,61.06
2023-03-12T22:57:54.139Z,61.10
2023-03-12T23:00:24.267Z,61.22
2023-03-12T23:02:51.347Z,61.22
2023-03-12T23:05:18.485Z,61.12
2023-03-12T23:07:45.700Z,61.18
2023-03-12T23:10:12.818Z,61.24
2023-03-12T23:12:39.870Z,61.37
2023-03-12T23:15:07.486Z,61.32
2023-03-12T23:17:34.651Z,61.28
2023-03-12T23:20:01.833Z,61.21
2023-03-12T23:22:28.959Z,61.29
2023-03-12T23:24:56.049Z,61.24
2023-03-12T23:27:23.387Z,61.24
2023-03-12T23:29:50.565Z,61.28
2023-03-12T23:32:17.635Z,61.31
2023-03-12T23:34:44.788Z,61.34
2023-03-12T23:37:12.064Z,61.41
2023-03-12T23:39:52.023Z,61.40
2023-03-12T23:42:20.967Z,61.34
2023-03-12T23:44:48.009Z,61.25
2023-03-12T23:47:15.111Z,61.41
2023-03-12T23:49:42.165Z,61.30
2023-03-12T23:52:09.309Z,61.29
2023-03-12T23:54:36.381Z,61.29
2023-03-12T23:57:03.684Z,61.27
2023-03-12T23:59:30.754Z,61.45
